Time;durP1;ratioP1;P1;durP2;ratioP2;P2;SDS_P1;SDS_P2;PMS_P1;PMS_P2;Temp;Humidity;BMP_temperature;BMP_pressure;BME280_temperature;BME280_humidity;BME280_pressure;Samples;Min_cycle;Max_cycle;Signal;HPM_P1;HPM_P2
2022/11/14 00:00:38;;;;;;;10.73;6.03;;;9.20;69.80;;;;;;5055260;28;20051;-73
2022/11/14 00:03:06;;;;;;;10.82;6.13;;;9.10;70.00;;;;;;5055240;28;20040;-73
2022/11/14 00:05:32;;;;;;;9.27;5.70;;;9.10;70.10;;;;;;5055171;28;20022;-73
2022/11/14 00:07:58;;;;;;;10.85;5.93;;;9.10;70.20;;;;;;5055089;28;20027;-73
2022/11/14 00:10:24;;;;;;;9.88;6.30;;;9.10;70.20;;;;;;5055072;28;20461;-73
2022/11/14 00:12:50;;;;;;;10.20;5.50;;;9.10;70.30;;;;;;5037512;28;20033;-73
2022/11/14 00:15:15;;;;;;;9.15;5.18;;;9.00;70.50;;;;;;5037483;28;20029;-73
2022/11/14 00:17:41;;;;;;;8.95;5.68;;;9.00;70.60;;;;;;5037475;28;20033;-73
2022/11/14 00:20:09;;;;;;;11.70;5.80;;;9.00;70.60;;;;;;5037373;28;20030;-73
2022/11/14 00:22:35;;;;;;;9.45;5.75;;;8.90;70.70;;;;;;5054871;28;20159;-73
2022/11/14 00:25:00;;;;;;;10.27;6.22;;;9.00;70.70;;;;;;5054828;28;20029;-73
2022/11/14 00:27:26;;;;;;;11.85;6.13;;;9.00;70.70;;;;;;5054752;28;20481;-73
2022/11/14 00:29:52;;;;;;;8.68;5.70;;;8.90;70.60;;;;;;5054710;28;20037;-73
2022/11/14 00:32:17;;;;;;;9.93;5.78;;;8.90;70.70;;;;;;5054671;28;20034;-73
2022/11/14 00:34:43;;;;;;;9.35;5.47;;;8.90;70.70;;;;;;5054594;28;20025;-73
2022/11/14 00:37:09;;;;;;;8.18;5.95;;;8.90;70.70;;;;;;5054306;28;20044;-73
2022/11/14 00:39:34;;;;;;;11.80;6.05;;;8.90;70.90;;;;;;5036952;28;20143;-73
2022/11/14 00:42:00;;;;;;;9.98;6.05;;;8.80;70.90;;;;;;5054226;28;20049;-73
2022/11/14 00:44:25;;;;;;;9.25;5.63;;;8.80;71.00;;;;;;5054579;28;20488;-73
2022/11/14 00:46:51;;;;;;;9.77;5.80;;;8.80;70.90;;;;;;5054384;28;20037;-73
2022/11/14 00:49:16;;;;;;;10.05;5.60;;;8.70;70.80;;;;;;5036962;28;20045;-73
2022/11/14 00:51:42;;;;;;;9.32;5.80;;;8.70;70.90;;;;;;5053417;28;20033;-73
2022/11/14 00:54:08;;;;;;;10.35;5.85;;;8.70;70.90;;;;;;5054262;28;20040;-73
2022/11/14 00:56:33;;;;;;;18.88;6.65;;;8.70;71.00;;;;;;5054215;28;20484;-73
2022/11/14 00:58:59;;;;;;;10.65;5.93;;;8.70;71.10;;;;;;5054220;28;20030;-73
2022/11/14 01:01:25;;;;;;;12.80;6.22;;;8.60;71.30;;;;;;5054123;28;20036;-73
2022/11/14 01:03:51;;;;;;;10.05;5.85;;;8.70;71.30;;;;;;5054056;28;20049;-74
2022/11/14 01:06:17;;;;;;;12.30;5.88;;;8.70;71.40;;;;;;5054153;28;20060;-73
2022/11/14 01:08:43;;;;;;;8.73;5.72;;;8.70;71.30;;;;;;5053900;28;20086;-73
2022/11/14 01:11:12;;;;;;;8.48;5.68;;;8.60;71.30;;;;;;5053931;28;20033;-73
2022/11/14 01:13:38;;;;;;;12.57;6.15;;;8.60;71.50;;;;;;5053897;28;20022;-73
2022/11/14 01:16:05;;;;;;;11.55;6.50;;;8.50;72.40;;;;;;5036369;28;20021;-73
2022/11/14 01:18:30;;;;;;;11.13;6.13;;;8.50;71.50;;;;;;5053729;28;20036;-73
2022/11/14 01:20:56;;;;;;;10.10;5.90;;;8.50;71.40;;;;;;5036382;28;20034;-73
2022/11/14 01:23:22;;;;;;;11.90;6.90;;;8.40;71.70;;;;;;5053723;28;20017;-73
2022/11/14 01:25:48;;;;;;;11.98;6.30;;;8.40;71.90;;;;;;5053669;28;20033;-73
2022/11/14 01:28:16;;;;;;;9.25;5.63;;;8.40;72.00;;;;;;5036233;28;20025;-73
2022/11/14 01:30:42;;;;;;;10.98;5.82;;;8.30;72.10;;;;;;5053633;28;20060;-73
2022/11/14 01:33:08;;;;;;;12.50;6.50;;;8.30;72.00;;;;;;5053547;28;20030;-73
2022/11/14 01:35:35;;;;;;;9.48;5.97;;;8.40;71.90;;;;;;5053670;28;20022;-73
2022/11/14 01:38:01;;;;;;;12.93;6.85;;;8.30;72.00;;;;;;5035956;28;20078;-73
2022/11/14 01:40:27;;;;;;;11.60;6.43;;;8.30;72.10;;;;;;5035900;28;20033;-73
2022/11/14 01:43:15;;;;;;;12.07;6.45;;;8.20;72.90;;;;;;5053415;28;20017;-73
2022/11/14 01:45:57;;;;;;;11.60;6.47;;;8.20;72.00;;;;;;5035834;28;20029;-73
2022/11/14 01:48:30;;;;;;;12.07;6.40;;;8.20;72.10;;;;;;5053422;28;20022;-73
2022/11/14 01:51:21;;;;;;;13.20;6.90;;;8.10;72.10;;;;;;5053517;28;20041;-73
2022/11/14 01:53:49;;;;;;;12.68;7.10;;;8.10;72.10;;;;;;5040055;28;20038;-73
2022/11/14 01:56:19;;;;;;;15.00;6.90;;;8.10;72.30;;;;;;5053222;28;20029;-73
2022/11/14 01:59:00;;;;;;;13.88;7.22;;;8.10;72.40;;;;;;5035746;28;20492;-73
2022/11/14 02:01:29;;;;;;;13.75;7.30;;;8.10;72.40;;;;;;5053245;28;20028;-73
2022/11/14 02:03:56;;;;;;;16.48;8.35;;;8.10;72.60;;;;;;5052938;28;20081;-73
2022/11/14 02:06:24;;;;;;;16.38;7.53;;;8.10;72.50;;;;;;5053146;28;20021;-73
2022/11/14 02:08:51;;;;;;;15.45;7.78;;;8.00;72.50;;;;;;5053061;28;20045;-73
2022/11/14 02:11:17;;;;;;;13.82;6.88;;;8.00;72.60;;;;;;5035802;28;20025;-73
2022/11/14 02:13:43;;;;;;;17.67;8.52;;;7.90;73.10;;;;;;5053085;28;20048;-73
2022/11/14 02:16:08;;;;;;;14.93;7.97;;;7.90;73.20;;;;;;5035576;28;20036;-73
2022/11/14 02:18:34;;;;;;;15.30;8.10;;;7.90;73.50;;;;;;5052956;28;20199;-73
2022/11/14 02:20:59;;;;;;;12.73;7.57;;;8.00;73.50;;;;;;5053027;28;20025;-73
2022/11/14 02:23:27;;;;;;;18.05;8.43;;;7.90;73.50;;;;;;5035471;28;20036;-73
2022/11/14 02:25:53;;;;;;;15.55;8.50;;;7.90;73.60;;;;;;5035499;28;20049;-73
2022/11/14 02:28:20;;;;;;;17.65;8.23;;;7.90;73.50;;;;;;5052959;28;20021;-73
2022/11/14 02:30:46;;;;;;;16.42;7.60;;;7.90;73.60;;;;;;5035464;28;20089;-73
2022/11/14 02:33:12;;;;;;;14.93;7.95;;;7.90;73.80;;;;;;5052911;28;20507;-73
2022/11/14 02:35:38;;;;;;;14.95;8.35;;;7.90;73.70;;;;;;5019060;28;20025;-73
2022/11/14 02:38:03;;;;;;;15.77;8.00;;;7.80;73.70;;;;;;5052680;28;20110;-73
2022/11/14 02:40:29;;;;;;;15.93;8.38;;;7.80;74.00;;;;;;5052906;28;20068;-73
2022/11/14 02:42:54;;;;;;;15.35;8.45;;;7.80;74.20;;;;;;5052852;28;20101;-72
2022/11/14 02:45:20;;;;;;;16.38;7.60;;;7.80;74.30;;;;;;5019201;28;20061;-73
2022/11/14 02:47:46;;;;;;;15.55;8.13;;;7.80;74.30;;;;;;5052772;28;20026;-73
2022/11/14 02:50:11;;;;;;;15.45;7.93;;;7.80;74.20;;;;;;5035236;28;20030;-73
2022/11/14 02:52:37;;;;;;;16.13;8.20;;;7.70;74.10;;;;;;5018930;28;20037;-72
2022/11/14 02:55:03;;;;;;;14.32;7.93;;;7.70;74.00;;;;;;5052714;28;20044;-73
2022/11/14 02:57:29;;;;;;;17.33;8.32;;;7.70;73.90;;;;;;5035364;28;20048;-73
2022/11/14 02:59:55;;;;;;;16.42;8.20;;;7.60;73.80;;;;;;5052600;28;20037;-73
2022/11/14 03:02:20;;;;;;;14.55;7.68;;;7.60;73.80;;;;;;5052658;28;20037;-73
2022/11/14 03:04:46;;;;;;;14.85;7.78;;;7.60;73.90;;;;;;5052609;28;20060;-73
2022/11/14 03:07:12;;;;;;;15.32;7.70;;;7.60;73.90;;;;;;5052612;28;20025;-73
2022/11/14 03:09:37;;;;;;;16.42;8.15;;;7.50;73.80;;;;;;5052489;28;20037;-73
2022/11/14 03:12:03;;;;;;;16.35;7.95;;;7.50;74.00;;;;;;5052567;28;20030;-73
2022/11/14 03:14:31;;;;;;;15.15;8.15;;;7.50;73.90;;;;;;5052549;28;20112;-73
2022/11/14 03:16:57;;;;;;;20.58;8.70;;;7.50;74.10;;;;;;5056269;28;20026;-73
2022/11/14 03:19:23;;;;;;;14.43;7.68;;;7.50;74.00;;;;;;5056008;28;20072;-73
2022/11/14 03:21:48;;;;;;;15.70;8.15;;;7.50;73.90;;;;;;5056018;28;20025;-73
2022/11/14 03:24:14;;;;;;;15.90;7.93;;;7.50;73.80;;;;;;5056007;28;20034;-73
2022/11/14 03:26:39;;;;;;;16.15;7.93;;;7.40;73.90;;;;;;5055975;28;20021;-73
2022/11/14 03:29:05;;;;;;;15.27;7.65;;;7.40;73.80;;;;;;5055879;28;20048;-73
2022/11/14 03:31:31;;;;;;;15.55;8.50;;;7.30;73.80;;;;;;5055852;28;20029;-72
2022/11/14 03:33:56;;;;;;;16.45;8.00;;;7.30;74.00;;;;;;5038284;28;20049;-73
2022/11/14 03:36:22;;;;;;;15.88;8.65;;;7.40;74.00;;;;;;5021927;28;20039;-73
2022/11/14 03:38:48;;;;;;;15.93;8.45;;;7.30;73.80;;;;;;5055426;28;20423;-73
2022/11/14 03:41:13;;;;;;;17.35;8.05;;;7.30;73.70;;;;;;5055664;28;20056;-72
2022/11/14 03:43:39;;;;;;;17.17;9.00;;;7.30;74.00;;;;;;5055606;28;20044;-73
2022/11/14 03:46:04;;;;;;;15.70;7.90;;;7.20;74.30;;;;;;5055597;28;20526;-73
2022/11/14 03:48:30;;;;;;;18.90;8.80;;;7.20;74.50;;;;;;5055507;28;20030;-73
2022/11/14 03:50:56;;;;;;;17.17;7.60;;;7.20;74.60;;;;;;5055491;28;20025;-73
2022/11/14 03:53:22;;;;;;;17.33;8.13;;;7.30;74.60;;;;;;5055444;28;20033;-73
2022/11/14 03:55:48;;;;;;;15.50;8.10;;;7.20;74.40;;;;;;5055396;28;20032;-73
2022/11/14 03:58:14;;;;;;;17.13;8.18;;;7.20;74.30;;;;;;5055426;28;20430;-73
2022/11/14 04:00:40;;;;;;;16.23;8.32;;;7.20;74.40;;;;;;5055271;28;20056;-73
2022/11/14 04:03:05;;;;;;;17.45;7.70;;;7.20;74.40;;;;;;5037882;28;20045;-73
2022/11/14 04:05:31;;;;;;;15.65;7.82;;;7.10;74.30;;;;;;5037682;28;20036;-72
2022/11/14 04:07:56;;;;;;;15.48;7.60;;;7.10;74.10;;;;;;5055100;28;20029;-73
2022/11/14 04:10:22;;;;;;;14.63;7.50;;;7.00;74.00;;;;;;5055140;28;20033;-73
2022/11/14 04:12:49;;;;;;;15.52;7.68;;;7.00;74.20;;;;;;5055090;28;20037;-73
2022/11/14 04:15:16;;;;;;;14.38;7.60;;;6.90;74.20;;;;;;5055021;28;20021;-72
2022/11/14 04:17:42;;;;;;;16.08;7.95;;;6.90;74.20;;;;;;5054990;28;20033;-73
2022/11/14 04:20:08;;;;;;;15.75;7.78;;;6.80;74.40;;;;;;5054891;28;20026;-73
2022/11/14 04:22:34;;;;;;;18.13;8.00;;;6.90;74.40;;;;;;5054902;28;20041;-73
2022/11/14 04:24:59;;;;;;;17.60;8.27;;;6.80;74.50;;;;;;5054878;28;20041;-73
2022/11/14 04:27:25;;;;;;;16.40;8.35;;;6.80;74.50;;;;;;5037366;28;20030;-73
2022/11/14 04:29:51;;;;;;;18.80;8.88;;;6.80;74.60;;;;;;5054751;28;20025;-73
2022/11/14 04:32:16;;;;;;;15.57;8.18;;;6.80;74.60;;;;;;5037259;28;20034;-73
2022/11/14 04:34:42;;;;;;;18.60;8.25;;;6.80;74.60;;;;;;5037272;28;20033;-72
2022/11/14 04:37:07;;;;;;;17.35;7.90;;;6.80;75.40;;;;;;5054604;28;20093;-73
2022/11/14 04:39:33;;;;;;;19.05;8.95;;;6.80;74.60;;;;;;5054250;28;20076;-73
2022/11/14 04:41:58;;;;;;;17.08;8.68;;;6.80;74.60;;;;;;5054508;28;20030;-73
2022/11/14 04:44:24;;;;;;;17.48;8.80;;;6.80;74.60;;;;;;5054484;28;20048;-73
2022/11/14 04:46:49;;;;;;;15.40;8.13;;;6.80;74.80;;;;;;5054567;28;20096;-73
2022/11/14 04:49:15;;;;;;;20.23;9.18;;;6.70;74.60;;;;;;5036906;28;20038;-73
2022/11/14 04:51:41;;;;;;;15.23;7.80;;;6.70;74.60;;;;;;5020564;28;20047;-73
2022/11/14 04:54:06;;;;;;;16.27;8.50;;;6.70;74.60;;;;;;5054290;28;20060;-73
2022/11/14 04:56:32;;;;;;;14.23;7.53;;;6.60;74.60;;;;;;5036659;28;20036;-73
2022/11/14 04:58:58;;;;;;;16.63;7.97;;;6.60;75.40;;;;;;5054091;28;20081;-73
2022/11/14 05:01:23;;;;;;;12.63;7.30;;;6.60;74.70;;;;;;5054150;28;20030;-73
2022/11/14 05:03:49;;;;;;;18.75;8.95;;;6.60;74.50;;;;;;5036651;28;20025;-73
2022/11/14 05:06:15;;;;;;;14.73;7.70;;;6.50;74.60;;;;;;5036605;28;20135;-73
2022/11/14 05:08:40;;;;;;;17.73;7.70;;;6.50;74.70;;;;;;5036519;28;20042;-73
2022/11/14 05:11:06;;;;;;;18.90;8.23;;;6.50;74.80;;;;;;5053964;28;20044;-73
2022/11/14 05:13:31;;;;;;;17.60;8.20;;;6.50;74.80;;;;;;5053928;28;20032;-73
2022/11/14 05:15:58;;;;;;;19.92;8.73;;;6.50;75.80;;;;;;5036510;28;20394;-73
2022/11/14 05:18:24;;;;;;;18.50;8.15;;;6.50;75.70;;;;;;5053773;28;20036;-72
2022/11/14 05:20:50;;;;;;;18.85;8.40;;;6.50;74.70;;;;;;5053771;28;20030;-73
2022/11/14 05:23:20;;;;;;;18.25;8.23;;;6.50;74.80;;;;;;5053876;28;20033;-73
2022/11/14 05:25:46;;;;;;;18.92;8.50;;;6.40;74.80;;;;;;5053717;28;20021;-73
2022/11/14 05:28:12;;;;;;;17.92;8.55;;;6.50;74.90;;;;;;5053680;28;20060;-73
2022/11/14 05:30:38;;;;;;;17.55;7.93;;;6.50;74.90;;;;;;5053633;28;20083;-73
2022/11/14 05:33:04;;;;;;;16.48;7.60;;;6.40;75.00;;;;;;5053612;28;20030;-73
2022/11/14 05:35:29;;;;;;;16.42;8.20;;;6.40;76.00;;;;;;5053555;28;20041;-73
2022/11/14 05:37:55;;;;;;;16.77;7.90;;;6.40;75.30;;;;;;5035379;28;20050;-73
2022/11/14 05:40:20;;;;;;;17.95;8.48;;;6.40;75.30;;;;;;5036006;28;20037;-73
2022/11/14 05:42:46;;;;;;;17.02;8.10;;;6.50;75.20;;;;;;5053438;28;20030;-73
2022/11/14 05:45:11;;;;;;;17.63;8.77;;;6.40;75.50;;;;;;5053424;28;20018;-73
2022/11/14 05:47:37;;;;;;;19.10;9.07;;;6.40;75.60;;;;;;5053477;28;20425;-73
2022/11/14 05:50:03;;;;;;;17.73;8.32;;;6.40;75.60;;;;;;5053332;28;20097;-73
2022/11/14 05:52:30;;;;;;;16.45;8.57;;;6.40;75.60;;;;;;5053316;28;20029;-73
2022/11/14 05:54:56;;;;;;;19.50;9.63;;;6.40;75.80;;;;;;5053318;28;20030;-73
2022/11/14 05:57:21;;;;;;;20.38;9.05;;;6.40;75.80;;;;;;5053287;28;20030;-73
2022/11/14 05:59:47;;;;;;;21.15;9.70;;;6.40;75.80;;;;;;5053123;28;20037;-73
2022/11/14 06:02:13;;;;;;;19.63;9.63;;;6.30;75.80;;;;;;5053211;28;20017;-73
2022/11/14 06:04:38;;;;;;;17.00;9.35;;;6.30;75.90;;;;;;5053179;28;20088;-72
2022/11/14 06:07:04;;;;;;;21.40;9.70;;;6.40;76.00;;;;;;5019286;28;20025;-73
2022/11/14 06:09:30;;;;;;;22.45;9.98;;;6.30;76.40;;;;;;5035700;28;20057;-73
2022/11/14 06:11:56;;;;;;;20.15;9.88;;;6.20;76.80;;;;;;5035792;28;20037;-73
2022/11/14 06:14:22;;;;;;;19.15;9.35;;;6.20;77.00;;;;;;5053097;28;20036;-73
2022/11/14 06:16:47;;;;;;;22.20;9.82;;;6.10;77.50;;;;;;5053182;28;20025;-73
2022/11/14 06:19:13;;;;;;;21.23;9.45;;;6.20;78.30;;;;;;5052962;28;20120;-73
2022/11/14 06:21:38;;;;;;;24.63;10.23;;;6.20;77.70;;;;;;5053005;28;20053;-73
2022/11/14 06:24:04;;;;;;;17.27;9.32;;;6.20;77.30;;;;;;5051952;28;20049;-73
2022/11/14 06:26:31;;;;;;;23.13;9.82;;;6.20;77.40;;;;;;5052984;28;20033;-73
2022/11/14 06:28:57;;;;;;;19.70;9.45;;;6.10;77.40;;;;;;5052911;28;20025;-73
2022/11/14 06:31:24;;;;;;;20.88;9.95;;;6.10;77.40;;;;;;5035511;28;20029;-74
2022/11/14 06:33:50;;;;;;;22.65;10.55;;;6.20;77.40;;;;;;5035475;28;20030;-73
2022/11/14 06:36:16;;;;;;;21.48;9.05;;;6.20;77.20;;;;;;5035491;28;20052;-73
2022/11/14 06:38:42;;;;;;;17.60;9.07;;;6.30;77.80;;;;;;5052560;28;20076;-73
2022/11/14 06:41:09;;;;;;;18.63;9.20;;;6.30;76.90;;;;;;5052839;28;20079;-73
2022/11/14 06:43:36;;;;;;;19.20;9.02;;;6.30;76.80;;;;;;5035305;28;20029;-73
2022/11/14 06:46:03;;;;;;;19.77;8.85;;;6.30;76.80;;;;;;5035383;28;20022;-73
2022/11/14 06:48:30;;;;;;;17.70;9.20;;;6.20;76.90;;;;;;5052813;28;20046;-73
2022/11/14 06:50:57;;;;;;;16.52;8.48;;;6.20;76.90;;;;;;5054920;28;20048;-73
2022/11/14 06:53:23;;;;;;;17.17;8.50;;;6.20;76.80;;;;;;5056609;28;20022;-73
2022/11/14 06:55:56;;;;;;;20.00;8.52;;;6.20;76.80;;;;;;5056513;28;20025;-73
2022/11/14 06:58:21;;;;;;;18.80;8.75;;;6.20;76.70;;;;;;5056437;28;20025;-73
2022/11/14 07:00:47;;;;;;;14.02;7.95;;;6.30;76.60;;;;;;5038922;28;20033;-74
2022/11/14 07:03:12;;;;;;;19.17;9.05;;;6.30;76.60;;;;;;5038939;28;20040;-74
2022/11/14 07:05:38;;;;;;;21.17;8.93;;;6.20;76.50;;;;;;5022562;28;20030;-73
2022/11/14 07:08:04;;;;;;;18.20;8.70;;;6.20;76.70;;;;;;5056235;28;20037;-73
2022/11/14 07:10:29;;;;;;;18.08;8.85;;;6.20;76.80;;;;;;5056267;28;20025;-74
2022/11/14 07:12:55;;;;;;;19.10;9.35;;;6.20;77.70;;;;;;5056105;28;20034;-73
2022/11/14 07:15:21;;;;;;;20.35;7.72;;;6.20;77.00;;;;;;5005988;28;20030;-73
2022/11/14 07:17:47;;;;;;;17.17;8.57;;;6.20;77.00;;;;;;5056058;28;20357;-73
2022/11/14 07:20:14;;;;;;;19.08;9.07;;;6.20;77.00;;;;;;5038367;28;20497;-73
2022/11/14 07:22:40;;;;;;;20.50;9.13;;;6.20;76.90;;;;;;5056020;28;20021;-73
2022/11/14 07:25:06;;;;;;;20.10;8.82;;;6.20;77.70;;;;;;5055935;28;20040;-73
2022/11/14 07:27:31;;;;;;;19.27;8.88;;;6.20;76.80;;;;;;5055905;28;20033;-73
2022/11/14 07:29:57;;;;;;;18.65;9.32;;;6.20;76.90;;;;;;5038391;28;20101;-73
2022/11/14 07:32:23;;;;;;;20.15;9.15;;;6.20;77.10;;;;;;5055980;28;20018;-73
2022/11/14 07:34:48;;;;;;;18.30;8.52;;;6.20;77.20;;;;;;5055819;28;20038;-73
2022/11/14 07:37:14;;;;;;;19.38;8.95;;;6.20;77.20;;;;;;5038279;28;20057;-73
2022/11/14 07:39:39;;;;;;;19.80;9.43;;;6.20;77.30;;;;;;5021693;28;20053;-74
2022/11/14 07:42:05;;;;;;;17.98;8.95;;;6.20;77.30;;;;;;5055643;28;20037;-73
2022/11/14 07:44:30;;;;;;;19.92;8.68;;;6.30;77.30;;;;;;5055642;28;20048;-73
2022/11/14 07:46:56;;;;;;;18.30;8.23;;;6.30;77.20;;;;;;5038125;28;20496;-73
2022/11/14 07:49:22;;;;;;;18.10;8.75;;;6.30;77.30;;;;;;5038099;28;20033;-73
2022/11/14 07:51:47;;;;;;;18.83;8.23;;;6.30;77.60;;;;;;5055481;28;20026;-73
2022/11/14 07:54:13;;;;;;;20.08;8.52;;;6.30;77.60;;;;;;5055471;28;20091;-73
2022/11/14 07:56:38;;;;;;;16.73;8.32;;;6.30;77.70;;;;;;5005291;28;20037;-73
2022/11/14 07:59:04;;;;;;;17.65;8.65;;;6.30;77.80;;;;;;5055280;28;20045;-74
2022/11/14 08:01:30;;;;;;;19.25;9.20;;;6.30;77.90;;;;;;5055012;28;20030;-74
2022/11/14 08:03:55;;;;;;;17.77;8.43;;;6.30;77.90;;;;;;5055257;28;20025;-74
2022/11/14 08:06:21;;;;;;;19.67;8.88;;;6.50;78.10;;;;;;5055370;28;20025;-75
2022/11/14 08:08:46;;;;;;;18.77;8.20;;;6.60;78.10;;;;;;5037703;28;20033;-72
2022/11/14 08:11:12;;;;;;;15.25;7.97;;;6.80;78.40;;;;;;5055128;28;20025;-74
2022/11/14 08:13:38;;;;;;;20.15;8.23;;;7.10;78.30;;;;;;5055105;28;20473;-74
2022/11/14 08:16:05;;;;;;;17.63;7.93;;;7.80;77.40;;;;;;5037542;28;20037;-75
2022/11/14 08:18:30;;;;;;;16.70;8.32;;;8.60;76.80;;;;;;5037554;28;20030;-73
2022/11/14 08:20:56;;;;;;;15.50;7.97;;;9.30;74.80;;;;;;5054954;28;20033;-73
2022/11/14 08:23:22;;;;;;;14.73;8.30;;;9.90;72.90;;;;;;5004834;28;20052;-72
2022/11/14 08:25:48;;;;;;;14.73;7.75;;;10.50;71.70;;;;;;5037316;28;20036;-73
2022/11/14 08:28:13;;;;;;;14.45;8.90;;;10.80;68.90;;;;;;5021135;28;20018;-73
2022/11/14 08:30:39;;;;;;;15.20;7.40;;;11.10;68.00;;;;;;5037234;28;20033;-73
2022/11/14 08:33:06;;;;;;;14.68;7.57;;;11.40;67.70;;;;;;5037355;28;20044;-73
2022/11/14 08:35:32;;;;;;;13.20;7.45;;;11.80;66.50;;;;;;5054682;28;20052;-73
2022/11/14 08:38:00;;;;;;;13.35;7.55;;;12.10;65.80;;;;;;5036903;28;20132;-73
2022/11/14 08:40:26;;;;;;;12.70;7.43;;;12.20;64.30;;;;;;5054502;28;20037;-73
2022/11/14 08:42:51;;;;;;;13.55;7.88;;;12.40;63.90;;;;;;5054524;28;20041;-73
2022/11/14 08:45:17;;;;;;;14.73;8.40;;;12.50;63.10;;;;;;5020815;28;20022;-73
2022/11/14 08:47:50;;;;;;;12.20;7.00;;;12.70;63.00;;;;;;5054409;28;20052;-73
2022/11/14 08:50:15;;;;;;;;;;;12.80;62.30;;;;;;5054993;28;20051;-73
2022/11/14 08:52:41;;;;;;;13.00;7.60;;;13.00;61.70;;;;;;5037030;28;19909;-73
2022/11/14 08:55:06;;;;;;;14.57;8.07;;;13.20;61.10;;;;;;5054278;28;20052;-75
2022/11/14 08:57:32;;;;;;;15.02;8.18;;;13.30;60.60;;;;;;5054289;28;20029;-73
2022/11/14 08:59:58;;;;;;;13.82;7.70;;;13.50;61.20;;;;;;5054123;28;20034;-73
2022/11/14 09:02:23;;;;;;;13.25;7.63;;;13.80;59.70;;;;;;5036865;28;20025;-73
2022/11/14 09:04:49;;;;;;;12.80;7.72;;;13.80;58.90;;;;;;5054111;28;20500;-73
2022/11/14 09:07:14;;;;;;;13.88;7.13;;;14.00;59.20;;;;;;5054070;28;20065;-73
2022/11/14 09:09:42;;;;;;;14.15;7.82;;;14.10;58.30;;;;;;5036600;28;20033;-73
2022/11/14 09:12:08;;;;;;;14.65;8.18;;;14.20;57.70;;;;;;5019889;28;20038;-72
2022/11/14 09:14:33;;;;;;;13.45;8.23;;;14.30;57.50;;;;;;5053729;28;20037;-72
2022/11/14 09:16:59;;;;;;;12.90;8.18;;;14.50;57.90;;;;;;5053903;28;20044;-72
2022/11/14 09:19:24;;;;;;;14.25;7.55;;;14.80;56.30;;;;;;5053735;28;20033;-73
2022/11/14 09:21:50;;;;;;;12.90;7.50;;;14.60;55.40;;;;;;5053796;28;20077;-73
2022/11/14 09:24:16;;;;;;;12.13;7.10;;;14.50;56.60;;;;;;5053736;28;20034;-73
2022/11/14 09:26:41;;;;;;;13.60;7.60;;;14.50;56.70;;;;;;5053742;28;20037;-73
2022/11/14 09:29:07;;;;;;;14.20;8.23;;;14.00;56.70;;;;;;5036321;28;20030;-73
2022/11/14 09:31:33;;;;;;;13.18;8.15;;;13.40;58.60;;;;;;5053661;28;20021;-72
2022/11/14 09:33:58;;;;;;;15.80;7.97;;;13.10;60.60;;;;;;5003475;28;20050;-73
2022/11/14 09:36:24;;;;;;;13.18;7.93;;;12.80;61.10;;;;;;5036202;28;20049;-73
2022/11/14 09:38:50;;;;;;;13.88;7.55;;;12.70;62.10;;;;;;5053252;28;20103;-73
2022/11/14 09:41:40;;;;;;;13.45;7.80;;;12.40;62.40;;;;;;5053463;28;20033;-73
2022/11/14 09:44:15;;;;;;;12.52;7.72;;;12.40;64.00;;;;;;5053492;28;20017;-73
2022/11/14 09:46:48;;;;;;;17.63;8.88;;;12.30;64.30;;;;;;5053581;28;20025;-73
2022/11/14 09:49:36;;;;;;;16.25;8.75;;;12.10;64.80;;;;;;5053428;28;20022;-73
2022/11/14 09:52:34;;;;;;;16.40;8.70;;;12.00;65.60;;;;;;5053391;28;20056;-73
2022/11/14 09:55:13;;;;;;;15.23;8.48;;;11.90;65.90;;;;;;5035848;28;20040;-73
2022/11/14 09:57:41;;;;;;;16.80;8.60;;;11.60;66.30;;;;;;5053329;28;20077;-73
2022/11/14 10:00:17;;;;;;;19.38;8.98;;;11.30;67.10;;;;;;5053132;28;20080;-72
2022/11/14 10:03:00;;;;;;;17.85;9.43;;;11.20;68.50;;;;;;5053185;28;20032;-73
2022/11/14 10:05:51;;;;;;;18.00;9.63;;;11.20;68.80;;;;;;5053219;28;20052;-72
2022/11/14 10:08:28;;;;;;;18.08;9.40;;;11.10;69.30;;;;;;5053100;28;20032;-73
2022/11/14 10:11:15;;;;;;;17.90;10.07;;;11.10;70.30;;;;;;5052158;28;20021;-73
2022/11/14 10:14:03;;;;;;;17.63;8.93;;;11.20;70.50;;;;;;5052227;28;20025;-73
2022/11/14 10:16:38;;;;;;;20.58;9.88;;;11.20;70.00;;;;;;5053120;28;20017;-73
2022/11/14 10:19:26;;;;;;;17.67;9.43;;;11.30;70.60;;;;;;5053162;28;20060;-73
2022/11/14 10:22:11;;;;;;;19.75;10.40;;;11.20;70.20;;;;;;5035510;28;20028;-73
2022/11/14 10:24:58;;;;;;;16.92;9.60;;;11.30;70.90;;;;;;5040852;28;20029;-73
2022/11/14 10:27:34;;;;;;;20.52;9.77;;;11.50;70.30;;;;;;5057112;28;20030;-73
2022/11/14 10:30:06;;;;;;;20.20;10.35;;;11.40;70.50;;;;;;5057077;28;20110;-73
2022/11/14 10:32:35;;;;;;;20.77;11.07;;;11.40;70.70;;;;;;5057025;28;20033;-73
2022/11/14 10:35:12;;;;;;;21.42;11.15;;;11.30;70.20;;;;;;5056947;28;20049;-73
2022/11/14 10:37:55;;;;;;;19.17;9.90;;;11.30;70.80;;;;;;5056865;28;20028;-74
2022/11/14 10:40:41;;;;;;;20.55;11.52;;;11.30;71.40;;;;;;5056834;28;20064;-73
2022/11/14 10:43:25;;;;;;;20.30;10.90;;;11.40;70.70;;;;;;5056973;28;20469;-73
2022/11/14 10:45:57;;;;;;;21.05;10.93;;;11.30;70.90;;;;;;5056776;28;20030;-73
2022/11/14 10:48:25;;;;;;;;;;;11.10;71.20;;;;;;5056242;28;20018;-73
2022/11/14 10:50:57;;;;;;;26.73;11.43;;;10.90;71.90;;;;;;5039158;28;19927;-73
2022/11/14 10:53:49;;;;;;;30.08;11.95;;;10.70;72.80;;;;;;5056613;28;20025;-73
2022/11/14 10:56:14;;;;;;;28.92;14.38;;;10.60;73.60;;;;;;5056666;28;20021;-73
2022/11/14 10:58:40;;;;;;;31.50;14.90;;;10.50;75.00;;;;;;5039149;28;20033;-75
2022/11/14 11:01:38;;;;;;;35.33;16.65;;;10.40;74.80;;;;;;5038950;28;20049;-73
2022/11/14 11:04:21;;;;;;;32.92;15.60;;;10.30;74.40;;;;;;5055438;28;20017;-73
2022/11/14 11:06:51;;;;;;;36.95;15.93;;;10.20;75.00;;;;;;5056415;28;20029;-73
2022/11/14 11:12:06;;;;;;;36.95;18.60;;;10.10;75.60;;;;;;5056526;28;20045;-73
2022/11/14 11:14:33;;;;;;;39.70;19.00;;;10.10;75.90;;;;;;5056360;28;20052;-73
2022/11/14 11:17:10;;;;;;;34.88;15.75;;;10.10;75.80;;;;;;5056144;28;20025;-73
2022/11/14 11:19:37;;;;;;;38.20;18.00;;;10.00;76.30;;;;;;5055015;28;20509;-73
2022/11/14 11:22:04;;;;;;;41.13;18.33;;;9.90;76.10;;;;;;5056075;28;20018;-73
2022/11/14 11:24:35;;;;;;;39.60;17.77;;;10.00;76.60;;;;;;5055013;28;20026;-73
2022/11/14 11:27:26;;;;;;;35.38;15.88;;;10.00;76.70;;;;;;5055980;28;20018;-73
2022/11/14 11:30:04;;;;;;;37.70;16.45;;;9.90;76.80;;;;;;5055973;28;20033;-73
2022/11/14 11:32:29;;;;;;;39.03;17.60;;;10.00;76.50;;;;;;5055859;28;20032;-73
2022/11/14 11:34:57;;;;;;;34.72;16.98;;;9.90;76.80;;;;;;5038418;28;20454;-73
2022/11/14 11:37:53;;;;;;;34.33;16.45;;;9.80;77.90;;;;;;5053935;28;20021;-73
2022/11/14 11:40:24;;;;;;;33.78;16.38;;;9.80;77.30;;;;;;5018467;28;20101;-73
2022/11/14 11:43:15;;;;;;;35.40;16.02;;;9.70;77.50;;;;;;5035843;28;20488;-73
2022/11/14 11:45:45;;;;;;;35.42;14.70;;;9.80;77.90;;;;;;5035753;28;20049;-73
2022/11/14 11:48:21;;;;;;;35.17;15.02;;;9.80;77.80;;;;;;5035770;28;20038;-73
2022/11/14 11:50:48;;;;;;;28.85;13.20;;;9.80;77.90;;;;;;5035726;28;20034;-73
2022/11/14 11:53:26;;;;;;;35.97;14.98;;;9.80;77.80;;;;;;5035605;28;20033;-73
2022/11/14 11:56:03;;;;;;;37.35;15.00;;;9.70;77.90;;;;;;5035577;28;20057;-73
2022/11/14 11:58:55;;;;;;;32.42;14.88;;;9.70;78.00;;;;;;5035450;28;20028;-73
2022/11/14 12:01:21;;;;;;;30.50;13.23;;;9.80;78.00;;;;;;5035457;28;20048;-73
2022/11/14 12:03:50;;;;;;;33.17;14.45;;;9.70;78.00;;;;;;5034541;28;20029;-73
2022/11/14 12:06:31;;;;;;;37.08;15.07;;;9.70;77.90;;;;;;5035386;28;20026;-73
2022/11/14 12:09:33;;;;;;;30.55;13.65;;;9.70;78.00;;;;;;5035458;28;20026;-73
2022/11/14 12:12:07;;;;;;;27.98;11.95;;;9.80;78.00;;;;;;5013867;28;20460;-73
2022/11/14 12:14:41;;;;;;;30.90;13.00;;;9.80;77.90;;;;;;5032057;28;20045;-73
2022/11/14 12:17:15;;;;;;;28.95;12.10;;;9.80;77.80;;;;;;5035243;28;20029;-73
2022/11/14 12:19:51;;;;;;;32.83;12.77;;;9.80;77.40;;;;;;5017709;28;20057;-72
2022/11/14 12:22:20;;;;;;;30.42;12.98;;;9.70;77.50;;;;;;5017773;28;20026;-73
2022/11/14 12:25:10;;;;;;;31.35;11.65;;;9.80;78.10;;;;;;5035031;28;20030;-73
2022/11/14 12:27:48;;;;;;;30.15;13.45;;;9.80;77.90;;;;;;5035028;28;20029;-73
2022/11/14 12:30:22;;;;;;;29.15;11.88;;;9.70;77.90;;;;;;5017574;28;20029;-73
2022/11/14 12:33:03;;;;;;;30.55;12.68;;;9.70;78.20;;;;;;5034925;28;20049;-73
2022/11/14 12:35:31;;;;;;;29.60;12.50;;;9.80;78.00;;;;;;5034847;28;20446;-73
2022/11/14 12:37:59;;;;;;;27.83;13.55;;;9.80;77.40;;;;;;5036977;28;20033;-73
2022/11/14 12:40:34;;;;;;;33.22;12.90;;;9.80;77.40;;;;;;5037365;28;20048;-73
2022/11/14 12:43:01;;;;;;;27.85;11.93;;;9.90;78.40;;;;;;5054752;28;20033;-73
2022/11/14 12:45:41;;;;;;;28.67;12.38;;;9.90;77.60;;;;;;5053494;28;20032;-73
2022/11/14 12:48:14;;;;;;;30.23;12.15;;;10.00;77.40;;;;;;5053746;28;20025;-73
2022/11/14 12:50:42;;;;;;;33.63;12.82;;;10.00;77.10;;;;;;5054441;28;20029;-73
2022/11/14 12:53:35;;;;;;;30.77;12.10;;;10.10;76.30;;;;;;5054370;28;20076;-73